01/05/05 - 21h:02mDenunciar

Aermacchi MB-339 Pan (Frecce Tricolori)

Os Frecce Tricolori são uma das únicas equipes oficias de acrobacia aérea que realizam o lancevak, uma manobra na qual o piloto, durante uma trajetória vertical ascendente, induz a aeronave à perda de controle; a velocidade chega a zero e, durante a descida, o tripulante retoma o controle e nivela a aeronave. Até algum tempo atrás a Esquadrilha da Fumaça realizava esta evolução, entretanto a mesma foi vetada quando foi constatado que o eixo da hélice era muito forçado (devido principalmente à inclinação do motor e conseqüentemente do eixo para eliminação do torque).



Imagem de Philip Preindl, retirada do site Jetphotos.net.





METAR SBPB 020000Z 07002KT CAVOK 27/25 Q1013=

Comentários (0)

Fotos postadas a mais de 15 dias não podem receber comentários.